Historyczne dane pomiarowe

Dodano dane terminowe – wersja testowa.

Dane z okresu 1951-2019

Wersja bazy: 1.34 [2019-03-16, lista zmian], aktualizacja planowana na 2019-04-15

Dane meteo z obszaru Polski uzyskane na podstawie danych udostępnionych przez Instytut Meteorologii i Gospodarki Wodnej – Państwowy Instytut Badawczy.

 

Wybierz Datę:    

       

TemperaturaWilgotnośćWiatrCiśnienieOpadyŚniegCzas trwania zjawisk
 Stacja t tx tn tng RH VA  wxwx mslp ppp RRR   cm mm wxwxwxwxwxwxwx
1977-08-13 8.3 10.6 6.8- 94.9 10.3 7.4 3.1 0.0 0.0- 801.9 5.6 5.6 0.0- 0.0 1.1 1.6-- 16.6-- 1.3
1977-08-14 6.8 8.3 6.2- 98.1 9.7 7.6 3.1 0.0 0.0- 800.8 3.8 0.4 3.4- 0.0 1.9 4.1-- 21.4-- 1.0
1977-08-15 4.9 6.4 4.4-100.0 8.7 8.0 8.3 7.8 0.0- 800.9 12.4 8.6 3.8- 0.0 0.0 10.8-- 24.0---
1977-08-16 2.8 4.6 2.0-100.0 7.5 8.0 5.8 4.5 0.0- 802.4 2.3 1.9 0.4- 0.0 0.1 10.2-- 22.3---
1977-08-17 3.0 6.5 0.1- 95.0 7.2 5.4 6.0 6.5 0.0- 802.3 0.0 0.0 0.0- 0.0 6.7--- 22.2---
1977-08-18 6.8 8.4 3.7- 98.3 9.8 6.8 11.4 24.0 0.0- 799.8 0.4 0.2 0.2- 0.0 0.8 0.4-- 21.3---
1977-08-19 7.8 9.8 6.3- 99.9 10.6 7.8 11.3 20.3 2.0- 791.7 32.1 14.4 17.7- 0.0 0.0 11.4-- 19.8---
1977-08-20 4.3 6.3 2.1-100.0 8.3 8.0 6.9 0.5 0.0- 792.9 9.7 0.0 9.7- 0.0 0.2 5.3-- 24.0---
1977-08-21 5.9 6.6 4.4-100.0 9.3 8.0 9.5 8.8 0.0- 791.3 34.6 3.0 31.6- 0.0 0.0 17.7-- 24.0---
1977-08-22 5.6 7.2 4.3-100.0 9.1 7.6 14.3 23.5 12.5- 784.0 1.4 0.9 0.5- 0.0 0.0 9.0-- 24.0---
1977-08-23 2.1 4.5 0.7-100.0 7.1 8.0 10.4 16.3 0.5- 787.6 16.4 1.9 14.5- 0.0 0.0 17.8- 1.3 24.0---
1977-08-24 0.4 1.4 -0.3-100.0 6.3 8.0 10.5 17.3 0.0- 796.4 0.4 0.4 0.0- 0.0 0.0 9.8-- 24.0---
1977-08-25 1.5 5.0 -0.7- 95.6 6.5 5.9 7.8 8.5 0.0- 799.8 0.0 0.0 0.0- 0.0 6.8--- 9.3---
1977-08-26 6.9 9.9 1.4- 67.9 6.7 1.9 4.1 0.0 0.0- 802.6 0.0 0.0 0.0- 0.0 12.9-------
1977-08-27 7.9 11.6 5.3- 73.3 7.8 5.0 7.5 9.5 0.0- 803.4 0.0 0.0 0.0- 0.0 9.4--- 4.0---
1977-08-28 8.1 10.6 6.3- 98.3 10.6 7.6 7.3 10.2 0.0- 803.6 1.7 0.0 1.7- 0.0 0.1 6.3-- 21.0---
1977-08-29 7.4 10.2 5.4- 95.9 9.9 4.8 3.0 0.0 0.0- 806.1 0.0 0.0 0.0- 0.0 8.1 6.2-- 10.1 6.0--
1977-08-30 13.4 17.9 6.3- 54.9 8.6 0.0 3.0 0.0 0.0- 807.5 0.0 0.0 0.0- 0.0 12.4-------
1977-08-31 14.8 16.9 13.1- 58.9 9.9 5.0 3.4 0.0 0.0- 806.3 0.0 0.0 0.0- 0.0 12.0-------
1977-09-01 9.9 13.1 8.7- 93.1 11.3 7.3 2.3 0.0 0.0- 804.8 0.0 0.0 0.0- 0.0 1.2--- 19.3---
1977-09-02 8.2 10.8 6.7- 89.4 9.7 6.0 2.4 0.0 0.0- 806.0 0.0 0.0 0.0- 0.0 2.6--- 5.0 2.5--
1977-09-03 8.5 12.6 6.0- 84.1 9.4 3.4 3.6 0.0 0.0- 805.5 0.0 0.0 0.0- 0.0 7.0 0.1--- 7.0--
1977-09-04 8.8 11.1 7.2- 91.8 10.4 6.3 4.3 0.0 0.0- 806.3 0.1 0.1 0.0- 0.0 3.1 0.2-- 5.7---
1977-09-05 8.7 11.5 6.8- 84.3 9.6 3.1 4.4 0.0 0.0- 808.3 0.0 0.0 0.0- 0.0 6.1--- 7.5-- 0.6
1977-09-06 9.2 12.2 6.4- 82.9 9.7 2.9 3.6 0.0 0.0- 809.3 0.0 0.0 0.0- 0.0 7.4--- 6.3 4.5--
1977-09-07 9.5 12.8 8.5- 88.0 10.5 3.8 2.9 0.0 0.0- 808.3 0.0 0.0 0.0- 0.0 6.8--- 6.3 8.0--
1977-09-08 8.2 10.2 7.2- 94.1 10.2 5.8 6.3 5.5 0.0- 804.7 6.5 0.8 5.7- 0.0 0.9 0.3-- 8.9 1.0--
1977-09-09 3.4 8.1 -1.5- 99.6 8.0 8.0 10.4 16.5 0.0- 798.2 36.7 28.2 8.5- 0.0 0.0 9.0 5.5- 24.0-- 2.2
1977-09-10 -2.3 -1.4 -3.1- 96.9 5.0 7.8 7.5 6.5 0.0- 801.4 0.4 0.4 0.0 5- 0.4- 8.0- 15.5---
1977-09-11 1.1 3.4 -3.1- 99.4 6.7 7.9 10.1 18.3 0.0- 801.2 8.5 3.2 5.3 4 0.0 0.0 8.4 0.3- 22.3---
808.0 ms

 

Źródłem pochodzenia danych jest Instytut Meteorologii i Gospodarki Wodnej – Państwowy Instytut Badawczy. Dane Instytutu Meteorologii i Gospodarki Wodnej – Państwowego Instytutu Badawczego zostały przetworzone.

Dane źródłowe można odnaleźć na stronie https://dane.imgw.pl